Time;durP1;ratioP1;P1;durP2;ratioP2;P2;SDS_P1;SDS_P2;PMS_P1;PMS_P2;Temp;Humidity;BMP_temperature;BMP_pressure;BME280_temperature;BME280_humidity;BME280_pressure;Samples;Min_cycle;Max_cycle;Signal;HPM_P1;HPM_P2
2022/07/12 00:01:31;;;;;;;4.07;3.08;;;15.20;99.90;;;;;;5030853;28;20028;-79
2022/07/12 00:03:57;;;;;;;3.95;2.78;;;15.20;99.90;;;;;;5030933;28;20024;-79
2022/07/12 00:06:23;;;;;;;5.70;3.10;;;15.10;99.90;;;;;;5030578;28;20029;-79
2022/07/12 00:08:48;;;;;;;3.78;3.20;;;15.10;99.90;;;;;;5031009;28;20032;-79
2022/07/12 00:11:14;;;;;;;3.88;3.13;;;15.00;99.90;;;;;;5013112;28;20040;-79
2022/07/12 00:13:39;;;;;;;6.13;3.28;;;15.00;99.90;;;;;;5023190;28;20041;-79
2022/07/12 00:16:05;;;;;;;4.05;2.97;;;15.00;99.90;;;;;;5016211;28;20029;-79
2022/07/12 00:18:31;;;;;;;3.75;3.28;;;14.90;99.90;;;;;;5029594;28;20044;-79
2022/07/12 00:20:57;;;;;;;4.97;3.17;;;14.90;99.90;;;;;;5030633;28;20033;-79
2022/07/12 00:23:22;;;;;;;5.68;3.53;;;14.80;99.90;;;;;;5029373;28;20092;-79
2022/07/12 00:25:48;;;;;;;4.22;3.25;;;14.80;99.90;;;;;;5030636;28;20029;-79
2022/07/12 00:28:13;;;;;;;8.23;3.58;;;14.70;99.90;;;;;;5029939;28;20056;-79
2022/07/12 00:30:39;;;;;;;3.22;2.92;;;14.70;99.90;;;;;;5012560;28;20021;-79
2022/07/12 00:33:04;;;;;;;3.25;2.95;;;14.70;99.90;;;;;;5030551;28;20115;-79
2022/07/12 00:35:30;;;;;;;4.53;3.20;;;14.70;99.90;;;;;;5030312;28;20373;-79
2022/07/12 00:37:55;;;;;;;4.85;3.25;;;14.60;99.90;;;;;;5030465;28;20099;-79
2022/07/12 00:40:21;;;;;;;4.05;3.10;;;14.60;99.90;;;;;;5030477;28;20044;-79
2022/07/12 00:42:47;;;;;;;4.05;3.20;;;14.60;99.90;;;;;;5030446;28;20073;-79
2022/07/12 00:45:13;;;;;;;4.15;3.22;;;14.50;99.90;;;;;;5012626;28;20037;-79
2022/07/12 00:47:42;;;;;;;3.90;3.17;;;14.50;99.90;;;;;;5030515;28;20034;-79
2022/07/12 00:50:10;;;;;;;5.75;3.78;;;14.40;99.90;;;;;;5030190;28;20029;-79
2022/07/12 00:52:36;;;;;;;5.65;4.07;;;14.40;99.90;;;;;;5030270;28;20029;-79
2022/07/12 00:55:05;;;;;;;4.93;3.22;;;14.40;99.90;;;;;;5030439;28;20029;-79
2022/07/12 00:57:32;;;;;;;3.53;3.13;;;14.30;99.90;;;;;;5030082;28;20030;-79
2022/07/12 00:59:58;;;;;;;8.27;3.70;;;14.30;99.90;;;;;;5029725;28;20053;-79
2022/07/12 01:02:24;;;;;;;3.88;3.45;;;14.30;99.90;;;;;;5030184;28;20087;-79
2022/07/12 01:04:51;;;;;;;3.88;3.17;;;14.20;99.90;;;;;;5030098;28;20017;-79
2022/07/12 01:07:17;;;;;;;5.05;3.60;;;14.10;99.90;;;;;;5029956;28;20168;-79
2022/07/12 01:09:43;;;;;;;6.65;3.42;;;14.10;99.90;;;;;;5029922;28;20132;-79
2022/07/12 01:12:10;;;;;;;4.25;3.30;;;14.10;99.90;;;;;;5029717;28;20036;-77
2022/07/12 01:14:35;;;;;;;5.68;3.30;;;14.10;99.90;;;;;;5033886;28;20060;-79
2022/07/12 01:17:02;;;;;;;7.45;3.60;;;14.00;99.90;;;;;;5039057;28;20061;-79
2022/07/12 01:19:28;;;;;;;4.82;3.60;;;14.00;99.90;;;;;;5050299;28;20450;-79
2022/07/12 01:21:57;;;;;;;4.57;3.42;;;14.00;99.90;;;;;;5031911;28;20069;-79
2022/07/12 01:24:22;;;;;;;7.05;3.53;;;14.00;99.90;;;;;;5049863;28;20025;-79
2022/07/12 01:26:50;;;;;;;4.55;3.75;;;14.00;99.90;;;;;;5046627;28;20719;-78
2022/07/12 01:29:16;;;;;;;6.88;3.25;;;13.90;99.90;;;;;;5030026;28;20132;-79
2022/07/12 01:31:42;;;;;;;4.80;3.33;;;13.90;99.90;;;;;;5049793;28;20044;-79
2022/07/12 01:34:08;;;;;;;4.10;3.70;;;13.90;99.90;;;;;;5050894;28;20021;-79
2022/07/12 01:36:36;;;;;;;5.07;3.50;;;13.90;99.90;;;;;;5053370;28;20108;-79
2022/07/12 01:39:03;;;;;;;4.35;3.55;;;13.90;99.90;;;;;;5053278;28;20017;-79
2022/07/12 01:41:30;;;;;;;5.43;4.20;;;13.80;99.90;;;;;;5047136;28;20080;-79
2022/07/12 01:43:56;;;;;;;7.40;3.38;;;13.80;99.90;;;;;;5053218;28;20029;-79
2022/07/12 01:46:21;;;;;;;4.13;3.72;;;13.80;99.90;;;;;;5053193;28;20029;-79
2022/07/12 01:48:47;;;;;;;7.43;3.40;;;13.80;99.90;;;;;;5049189;28;20025;-79
2022/07/12 01:51:12;;;;;;;5.93;3.15;;;13.70;99.90;;;;;;5044849;28;20048;-79
2022/07/12 01:53:38;;;;;;;4.55;3.15;;;13.70;99.90;;;;;;5049398;28;20034;-79
2022/07/12 01:56:04;;;;;;;5.03;3.95;;;13.70;99.90;;;;;;5042966;28;20142;-79
2022/07/12 01:58:30;;;;;;;3.90;3.05;;;13.60;99.90;;;;;;5052992;28;20051;-79
2022/07/12 02:00:57;;;;;;;4.30;3.83;;;13.60;99.90;;;;;;5052812;28;20139;-79
2022/07/12 02:03:23;;;;;;;5.70;3.83;;;13.60;99.90;;;;;;5050566;28;20032;-79
2022/07/12 02:05:49;;;;;;;10.55;4.40;;;13.60;99.90;;;;;;5052721;28;20040;-79
2022/07/12 02:08:14;;;;;;;6.47;3.88;;;13.60;99.90;;;;;;5053168;28;20051;-79
2022/07/12 02:10:41;;;;;;;6.65;3.90;;;13.50;99.90;;;;;;5051940;28;20060;-79
2022/07/12 02:13:07;;;;;;;4.78;3.88;;;13.50;99.90;;;;;;5046880;28;20117;-79
2022/07/12 02:15:33;;;;;;;5.65;3.53;;;13.50;99.90;;;;;;5032296;28;20574;-79
2022/07/12 02:17:58;;;;;;;4.78;3.35;;;13.40;99.90;;;;;;5048282;28;20324;-79
2022/07/12 02:20:24;;;;;;;4.63;3.67;;;13.40;99.90;;;;;;5052532;28;20029;-79
2022/07/12 02:22:50;;;;;;;4.28;3.35;;;13.30;99.90;;;;;;5052629;28;20469;-79
2022/07/12 02:25:15;;;;;;;3.80;3.40;;;13.30;99.90;;;;;;5052677;28;20037;-79
2022/07/12 02:27:42;;;;;;;7.45;3.30;;;13.20;99.90;;;;;;5052620;28;20024;-79
2022/07/12 02:30:10;;;;;;;5.45;3.50;;;13.20;99.90;;;;;;5052482;28;20029;-79
2022/07/12 02:32:36;;;;;;;4.80;3.90;;;13.20;99.90;;;;;;5040824;28;20041;-79
2022/07/12 02:35:02;;;;;;;7.35;4.07;;;13.20;99.90;;;;;;5052387;28;20083;-79
2022/07/12 02:37:28;;;;;;;5.30;3.95;;;13.10;99.90;;;;;;5034436;28;20036;-79
2022/07/12 02:40:53;;;;;;;6.22;3.85;;;13.20;99.90;;;;;;5037257;28;20039;-79
2022/07/12 02:42:43;;;;;;;7.85;3.80;;;13.20;99.90;;;;;;5051849;28;20040;-79
2022/07/12 02:45:09;;;;;;;6.65;4.05;;;13.10;99.90;;;;;;5046295;28;20025;-79
2022/07/12 02:47:38;;;;;;;5.85;3.72;;;13.10;99.90;;;;;;5044656;28;20091;-79
2022/07/12 02:50:04;;;;;;;6.57;3.50;;;13.10;99.90;;;;;;5052022;28;20469;-79
2022/07/12 02:52:29;;;;;;;5.95;3.70;;;13.10;99.90;;;;;;5052244;28;20057;-78
2022/07/12 02:54:55;;;;;;;6.10;3.83;;;13.10;99.90;;;;;;5051799;28;20064;-78
2022/07/12 02:57:20;;;;;;;4.97;3.70;;;13.10;99.90;;;;;;5051849;28;20032;-79
2022/07/12 02:59:46;;;;;;;7.10;4.05;;;13.00;99.90;;;;;;5048636;28;20131;-79
2022/07/12 03:02:11;;;;;;;5.53;4.10;;;13.00;99.90;;;;;;5051761;28;20090;-79
2022/07/12 03:04:37;;;;;;;6.25;3.85;;;13.00;99.90;;;;;;5051848;28;20025;-79
2022/07/12 03:07:03;;;;;;;4.75;3.50;;;13.00;99.90;;;;;;5051616;28;20025;-79
2022/07/12 03:09:28;;;;;;;4.97;3.40;;;12.90;99.90;;;;;;5048036;28;20045;-79
2022/07/12 03:11:54;;;;;;;5.80;3.45;;;12.90;99.90;;;;;;5051654;28;20017;-79
2022/07/12 03:14:19;;;;;;;4.68;3.67;;;12.90;99.90;;;;;;5037318;28;20033;-79
2022/07/12 03:16:45;;;;;;;4.95;3.78;;;12.80;99.90;;;;;;5045161;28;20025;-79
2022/07/12 03:19:10;;;;;;;4.28;3.88;;;12.80;99.90;;;;;;5051704;28;20033;-79
2022/07/12 03:21:36;;;;;;;6.00;4.22;;;12.80;99.90;;;;;;5051265;28;20029;-79
2022/07/12 03:24:01;;;;;;;9.32;3.83;;;12.80;99.90;;;;;;5051436;28;20029;-79
2022/07/12 03:26:27;;;;;;;5.97;4.10;;;12.80;99.90;;;;;;5044794;28;20030;-79
2022/07/12 03:28:52;;;;;;;7.78;4.40;;;12.70;99.90;;;;;;5043883;28;20120;-79
2022/07/12 03:31:18;;;;;;;5.97;4.75;;;12.70;99.90;;;;;;5051428;28;20033;-79
2022/07/12 03:33:44;;;;;;;7.20;4.68;;;12.70;99.90;;;;;;5033371;28;20026;-80
2022/07/12 03:36:09;;;;;;;4.97;4.47;;;12.70;99.90;;;;;;5050967;28;20037;-79
2022/07/12 03:38:36;;;;;;;6.22;4.80;;;12.70;99.90;;;;;;5051594;28;20028;-79
2022/07/12 03:41:02;;;;;;;7.18;4.80;;;12.70;99.90;;;;;;5047557;28;20078;-79
2022/07/12 03:43:27;;;;;;;6.65;5.07;;;12.70;99.90;;;;;;5051104;28;20108;-79
2022/07/12 03:45:53;;;;;;;10.27;4.90;;;12.70;99.90;;;;;;5051090;28;20466;-79
2022/07/12 03:48:19;;;;;;;9.95;4.63;;;12.70;99.90;;;;;;5051022;28;20029;-79
2022/07/12 03:50:45;;;;;;;6.93;4.20;;;12.70;99.90;;;;;;5051030;28;20029;-79
2022/07/12 03:53:11;;;;;;;6.55;4.57;;;12.70;99.90;;;;;;5037202;28;20478;-79
2022/07/12 03:55:36;;;;;;;7.65;4.35;;;12.70;99.90;;;;;;5049075;28;20036;-79
2022/07/12 03:58:03;;;;;;;5.90;4.38;;;12.70;99.90;;;;;;5045952;28;20041;-79
2022/07/12 04:00:29;;;;;;;5.68;3.92;;;12.70;99.90;;;;;;5051129;28;20150;-79
2022/07/12 04:02:54;;;;;;;5.35;4.15;;;12.70;99.90;;;;;;5051012;28;20032;-79
2022/07/12 04:05:20;;;;;;;6.05;3.83;;;12.70;99.90;;;;;;5042636;28;20172;-79
2022/07/12 04:07:45;;;;;;;7.03;3.92;;;12.70;99.90;;;;;;5029729;28;20140;-79
2022/07/12 04:10:11;;;;;;;5.57;4.07;;;12.70;99.90;;;;;;5016914;28;20095;-78
2022/07/12 04:12:37;;;;;;;6.03;4.30;;;12.70;99.90;;;;;;5018920;28;20029;-79
2022/07/12 04:15:06;;;;;;;5.93;4.07;;;12.70;99.90;;;;;;5026693;28;20037;-80
2022/07/12 04:17:32;;;;;;;6.03;4.28;;;12.70;99.90;;;;;;5033757;28;20397;-76
2022/07/12 04:19:58;;;;;;;5.05;4.45;;;12.70;99.90;;;;;;5031642;28;20029;-76
2022/07/12 04:22:23;;;;;;;5.95;4.50;;;12.70;99.90;;;;;;5032781;28;20458;-76
2022/07/12 04:24:49;;;;;;;6.05;4.63;;;12.80;99.90;;;;;;5022617;28;20462;-76
2022/07/12 04:27:14;;;;;;;8.10;4.65;;;12.80;99.90;;;;;;5030979;28;20029;-76
2022/07/12 04:29:40;;;;;;;5.78;4.35;;;12.80;99.90;;;;;;5030967;28;20022;-76
2022/07/12 04:32:06;;;;;;;7.38;4.43;;;12.90;99.90;;;;;;5022699;28;20033;-77
2022/07/12 04:34:32;;;;;;;7.22;4.47;;;12.90;99.90;;;;;;5017466;28;20033;-78
2022/07/12 04:36:57;;;;;;;6.82;4.78;;;12.90;99.90;;;;;;5016795;28;20580;-77
2022/07/12 04:39:23;;;;;;;8.40;4.32;;;12.90;99.90;;;;;;5022386;28;20018;-77
2022/07/12 04:41:49;;;;;;;5.97;5.25;;;13.00;99.90;;;;;;5023080;28;20078;-77
2022/07/12 04:44:14;;;;;;;8.57;4.72;;;13.00;99.90;;;;;;5025517;28;20132;-77
2022/07/12 04:46:42;;;;;;;8.32;4.80;;;13.00;99.90;;;;;;5017179;28;20026;-79
2022/07/12 04:49:08;;;;;;;7.22;4.85;;;13.10;99.90;;;;;;5024785;28;20037;-79
2022/07/12 04:51:34;;;;;;;6.40;4.90;;;13.20;99.90;;;;;;5017987;28;20026;-79
2022/07/12 04:53:59;;;;;;;5.32;4.70;;;13.30;99.90;;;;;;5029538;28;20509;-79
2022/07/12 04:56:25;;;;;;;5.30;4.80;;;13.40;99.90;;;;;;5033012;28;20422;-81
2022/07/12 04:58:50;;;;;;;5.55;4.95;;;13.50;99.90;;;;;;5031449;28;20029;-80
2022/07/12 05:01:17;;;;;;;11.52;5.07;;;13.50;99.90;;;;;;5024056;28;20117;-77
2022/07/12 05:03:42;;;;;;;6.75;4.90;;;13.60;99.90;;;;;;5031976;28;20104;-78
2022/07/12 05:06:08;;;;;;;13.90;6.63;;;13.70;99.90;;;;;;5022935;28;20104;-78
2022/07/12 05:08:34;;;;;;;6.88;5.22;;;13.80;99.90;;;;;;5012547;28;20037;-78
2022/07/12 05:10:59;;;;;;;7.03;4.97;;;13.80;99.90;;;;;;5017351;28;20022;-78
2022/07/12 05:13:25;;;;;;;5.68;5.00;;;13.90;99.90;;;;;;5017194;28;20026;-78
2022/07/12 05:15:51;;;;;;;8.10;4.63;;;14.00;99.90;;;;;;5017077;28;20033;-78
2022/07/12 05:18:16;;;;;;;11.90;5.22;;;14.10;99.90;;;;;;5017058;28;20022;-78
2022/07/12 05:20:42;;;;;;;6.18;5.38;;;14.10;99.90;;;;;;5029427;28;20172;-78
2022/07/12 05:23:07;;;;;;;8.25;5.60;;;14.20;99.90;;;;;;5016911;28;20025;-78
2022/07/12 05:25:33;;;;;;;7.82;5.82;;;14.30;99.90;;;;;;5016077;28;20049;-78
2022/07/12 05:27:59;;;;;;;6.97;5.90;;;14.40;99.90;;;;;;5036518;28;20025;-78
2022/07/12 05:30:25;;;;;;;6.72;5.55;;;14.50;99.90;;;;;;5025649;28;20045;-78
2022/07/12 05:32:51;;;;;;;5.95;5.28;;;14.60;99.90;;;;;;5015693;28;20032;-77
2022/07/12 05:35:17;;;;;;;6.20;5.40;;;14.70;99.90;;;;;;5016801;28;20022;-70
2022/07/12 05:37:42;;;;;;;8.70;4.68;;;14.90;99.90;;;;;;5017408;28;20056;-71
2022/07/12 05:40:08;;;;;;;5.13;4.63;;;15.00;99.90;;;;;;5016788;28;20053;-70
2022/07/12 05:42:34;;;;;;;6.53;5.18;;;15.10;99.90;;;;;;5016927;28;20022;-70
2022/07/12 05:45:00;;;;;;;9.75;5.28;;;15.20;99.90;;;;;;5016511;28;20026;-81
2022/07/12 05:47:25;;;;;;;5.80;4.93;;;15.30;99.90;;;;;;5016206;28;20351;-81
2022/07/12 05:49:53;;;;;;;9.13;5.53;;;15.40;99.90;;;;;;5019984;28;20418;-82
2022/07/12 05:55:03;;;;;;;5.30;4.57;;;15.60;99.90;;;;;;5014208;28;20448;-82
2022/07/12 05:57:29;;;;;;;6.53;4.93;;;15.70;99.90;;;;;;5013391;28;20100;-82
2022/07/12 05:59:55;;;;;;;6.50;3.70;;;15.80;99.90;;;;;;5024529;28;20073;-81
2022/07/12 06:02:20;;;;;;;5.32;3.85;;;16.00;99.90;;;;;;5035985;28;20029;-82
2022/07/12 06:04:46;;;;;;;4.40;2.42;;;16.10;99.90;;;;;;5035841;28;20100;-82
2022/07/12 06:07:11;;;;;;;5.38;2.53;;;16.20;99.90;;;;;;5017934;28;20025;-82
2022/07/12 06:09:37;;;;;;;4.28;2.33;;;16.40;99.90;;;;;;5035555;28;20386;-82
2022/07/12 06:12:03;;;;;;;3.97;2.60;;;16.50;99.90;;;;;;5035658;28;20018;-82
2022/07/12 06:14:33;;;;;;;3.53;2.25;;;16.60;99.90;;;;;;5015459;28;20026;-81
2022/07/12 06:17:03;;;;;;;2.88;2.30;;;16.70;99.90;;;;;;5016158;28;20029;-81
2022/07/12 06:19:31;;;;;;;3.03;2.35;;;16.80;99.90;;;;;;5031128;28;20394;-81
2022/07/12 06:21:58;;;;;;;4.50;2.53;;;17.00;99.90;;;;;;5031164;28;20025;-80
2022/07/12 06:24:24;;;;;;;3.17;2.15;;;17.10;99.90;;;;;;5031705;28;20493;-79
2022/07/12 06:26:49;;;;;;;4.18;2.30;;;17.20;99.90;;;;;;5033375;28;20025;-80
2022/07/12 06:29:15;;;;;;;4.22;2.20;;;17.40;99.90;;;;;;5033157;28;20135;-80
2022/07/12 06:31:41;;;;;;;3.85;2.00;;;17.60;99.90;;;;;;5032004;28;20025;-79
2022/07/12 06:34:07;;;;;;;2.95;2.10;;;17.60;99.90;;;;;;5013018;28;20033;-79
2022/07/12 06:36:32;;;;;;;2.60;2.00;;;17.70;99.90;;;;;;5032801;28;20021;-80
2022/07/12 06:38:58;;;;;;;4.25;1.70;;;17.70;99.90;;;;;;5032345;28;20029;-79
2022/07/12 06:41:24;;;;;;;2.60;1.30;;;17.80;99.90;;;;;;5031420;28;20024;-80
2022/07/12 06:43:50;;;;;;;1.73;1.40;;;18.00;99.90;;;;;;5032558;28;20104;-80
2022/07/12 06:46:15;;;;;;;2.45;1.40;;;18.00;99.90;;;;;;5032814;28;20116;-80
2022/07/12 06:48:41;;;;;;;2.10;1.25;;;18.00;99.90;;;;;;5029064;28;20143;-80
2022/07/12 06:51:06;;;;;;;3.35;1.50;;;18.10;99.90;;;;;;5027982;28;20030;-78
2022/07/12 06:53:32;;;;;;;1.95;1.52;;;18.20;99.90;;;;;;5027246;28;20026;-78
2022/07/12 06:55:58;;;;;;;1.70;1.20;;;18.30;99.90;;;;;;5027045;28;20036;-76
2022/07/12 06:58:23;;;;;;;2.58;1.20;;;18.40;99.90;;;;;;5030535;28;20101;-79
2022/07/12 07:00:49;;;;;;;1.50;1.30;;;18.50;99.90;;;;;;5031806;28;20474;-79
2022/07/12 07:03:14;;;;;;;2.42;1.50;;;18.60;99.90;;;;;;5030494;28;20095;-79
2022/07/12 07:05:40;;;;;;;3.53;1.30;;;18.60;99.90;;;;;;5029638;28;20029;-79
2022/07/12 07:08:05;;;;;;;1.75;1.40;;;18.70;99.90;;;;;;5013530;28;20544;-79
2022/07/12 07:10:31;;;;;;;2.10;1.33;;;18.80;99.90;;;;;;5030354;28;20025;-79
2022/07/12 07:12:56;;;;;;;2.28;1.50;;;18.80;99.90;;;;;;5029402;28;20109;-79
2022/07/12 07:15:22;;;;;;;1.92;1.50;;;18.90;99.90;;;;;;5013670;28;20029;-79
2022/07/12 07:17:47;;;;;;;3.28;1.30;;;19.00;99.90;;;;;;5013394;28;20030;-78
2022/07/12 07:20:13;;;;;;;1.52;1.20;;;19.00;99.90;;;;;;5030509;28;20030;-79
2022/07/12 07:22:39;;;;;;;1.95;1.38;;;19.00;99.90;;;;;;5030837;28;20017;-79
2022/07/12 07:25:06;;;;;;;3.92;1.38;;;19.10;99.90;;;;;;5029079;28;20120;-79
2022/07/12 07:27:31;;;;;;;2.05;1.30;;;19.10;99.90;;;;;;5014376;28;20079;-79
2022/07/12 07:32:41;;;;;;;1.92;1.55;;;19.20;99.90;;;;;;5022244;28;20394;-81
2022/07/12 07:35:07;;;;;;;2.35;1.30;;;19.20;99.90;;;;;;5025772;28;20025;-81
2022/07/12 07:37:33;;;;;;;1.88;1.50;;;19.30;99.90;;;;;;5012876;28;20421;-81
2022/07/12 07:39:59;;;;;;;1.95;1.30;;;19.40;99.90;;;;;;5031302;28;20017;-81
2022/07/12 07:42:25;;;;;;;3.00;1.40;;;19.50;99.90;;;;;;5031424;28;20476;-81
2022/07/12 07:44:50;;;;;;;3.45;1.77;;;19.60;99.90;;;;;;5031947;28;20033;-80
2022/07/12 07:47:16;;;;;;;2.22;1.40;;;19.60;99.90;;;;;;5013834;28;20130;-81
2022/07/12 07:49:41;;;;;;;1.52;1.30;;;19.60;99.90;;;;;;5031100;28;20032;-81
2022/07/12 07:52:07;;;;;;;2.00;1.40;;;19.60;99.90;;;;;;5031350;28;20025;-82
2022/07/12 07:54:33;;;;;;;3.20;1.70;;;19.70;99.90;;;;;;5031352;28;20045;-81
2022/07/12 07:56:58;;;;;;;2.92;1.17;;;19.90;99.90;;;;;;5031221;28;20052;-81
2022/07/12 07:59:24;;;;;;;1.55;1.30;;;19.80;99.90;;;;;;5032112;28;20183;-81
2022/07/12 08:01:52;;;;;;;2.47;1.20;;;19.80;99.90;;;;;;5030902;28;20712;-71
2022/07/12 08:04:19;;;;;;;1.88;1.30;;;19.70;99.90;;;;;;5030883;28;20021;-72
2022/07/12 08:06:46;;;;;;;2.65;1.15;;;19.70;99.90;;;;;;5031747;28;20053;-72
2022/07/12 08:09:11;;;;;;;1.50;1.13;;;19.80;99.90;;;;;;5050667;28;20025;-72
2022/07/12 08:11:38;;;;;;;2.15;1.30;;;19.90;99.90;;;;;;5050653;28;20370;-72
2022/07/12 08:14:04;;;;;;;1.20;1.00;;;19.90;99.90;;;;;;5032437;28;20033;-72
2022/07/12 08:16:30;;;;;;;2.40;1.20;;;20.00;99.90;;;;;;5018636;28;20035;-72
2022/07/12 08:18:56;;;;;;;1.60;1.10;;;19.90;99.90;;;;;;5050142;28;20350;-72
2022/07/12 08:21:22;;;;;;;1.40;1.00;;;19.90;99.90;;;;;;5050237;28;20028;-72
2022/07/12 08:23:48;;;;;;;1.70;1.00;;;20.00;99.90;;;;;;5050749;28;20090;-81
2022/07/12 08:26:22;;;;;;;1.77;1.05;;;20.00;99.90;;;;;;5032358;28;20028;-81
2022/07/12 08:28:47;;;;;;;1.70;1.20;;;20.10;99.90;;;;;;5030278;28;20021;-81
2022/07/12 08:31:14;;;;;;;1.48;1.25;;;20.20;99.90;;;;;;5021682;28;20092;-82
2022/07/12 08:33:41;;;;;;;2.97;1.15;;;20.10;99.90;;;;;;5013775;28;20029;-81
2022/07/12 08:36:08;;;;;;;1.83;1.10;;;20.10;99.90;;;;;;5028472;28;20505;-82
2022/07/12 08:38:36;;;;;;;2.38;1.23;;;20.20;99.90;;;;;;5003156;28;20030;-82
2022/07/12 08:41:04;;;;;;;1.83;1.20;;;20.30;99.90;;;;;;5013870;28;20501;-82
2022/07/12 08:43:34;;;;;;;1.85;1.30;;;20.40;99.90;;;;;;5031992;28;20462;-82
2022/07/12 08:46:06;;;;;;;4.65;1.20;;;20.50;99.90;;;;;;5021942;28;20018;-82
2022/07/12 08:48:33;;;;;;;4.15;1.25;;;20.60;99.90;;;;;;5035971;28;20854;-82
2022/07/12 08:51:11;;;;;;;1.52;1.00;;;20.60;99.90;;;;;;5035891;28;20027;-82
2022/07/12 08:53:37;;;;;;;2.15;1.23;;;20.80;99.90;;;;;;5010642;28;20037;-82
2022/07/12 08:56:04;;;;;;;1.38;1.20;;;20.90;99.90;;;;;;5035679;28;20052;-82
2022/07/12 08:58:30;;;;;;;3.22;1.17;;;21.00;99.90;;;;;;5017875;28;20026;-82
2022/07/12 09:00:55;;;;;;;2.40;1.20;;;21.00;99.90;;;;;;5024195;28;20046;-82
2022/07/12 09:03:21;;;;;;;1.60;1.10;;;21.10;99.90;;;;;;5018285;28;20025;-82
2022/07/12 09:05:49;;;;;;;1.80;1.17;;;21.20;99.90;;;;;;5033720;28;20028;-82
2022/07/12 09:08:14;;;;;;;4.20;1.50;;;21.20;99.90;;;;;;5034731;28;20018;-82
2022/07/12 09:10:49;;;;;;;1.38;1.20;;;21.30;99.90;;;;;;5027786;28;20121;-83
2022/07/12 09:13:14;;;;;;;;;;;21.40;99.90;;;;;;5025542;28;20101;-82
2022/07/12 09:15:40;;;;;;;3.45;1.65;;;21.60;99.90;;;;;;5028738;28;19993;-82
2022/07/12 09:18:13;;;;;;;1.52;1.23;;;21.60;99.90;;;;;;5027945;28;20030;-83
2022/07/12 09:20:39;;;;;;;1.92;1.23;;;21.60;99.90;;;;;;5021215;28;20104;-82
2022/07/12 09:23:10;;;;;;;1.92;1.40;;;21.70;99.90;;;;;;5035109;28;20475;-82
2022/07/12 09:25:46;;;;;;;1.75;1.20;;;21.90;99.90;;;;;;5035733;28;20040;-82
2022/07/12 09:28:13;;;;;;;2.00;1.30;;;21.90;99.90;;;;;;5010438;28;20121;-83
2022/07/12 09:30:55;;;;;;;1.70;1.40;;;22.00;99.90;;;;;;4998509;28;20026;-82
2022/07/12 09:36:06;;;;;;;1.25;1.13;;;22.00;99.90;;;;;;5035123;28;20079;-83
2022/07/12 09:38:35;;;;;;;1.20;1.10;;;22.10;99.90;;;;;;5035250;28;20425;-82
2022/07/12 09:41:03;;;;;;;1.10;1.00;;;22.20;99.90;;;;;;5033835;28;20030;-82
2022/07/12 09:43:32;;;;;;;1.80;1.23;;;22.20;99.90;;;;;;5017712;28;20025;-83
2022/07/12 09:45:59;;;;;;;2.13;1.23;;;22.20;99.90;;;;;;5034983;28;20034;-82
2022/07/12 09:48:29;;;;;;;2.88;1.30;;;22.30;99.90;;;;;;5034956;28;20022;-82
2022/07/12 09:50:57;;;;;;;2.03;1.08;;;22.40;99.90;;;;;;5021808;28;20084;-83
2022/07/12 09:53:37;;;;;;;3.55;1.17;;;22.60;99.90;;;;;;5019605;28;20036;-82
2022/07/12 09:56:07;;;;;;;1.80;1.17;;;23.00;99.90;;;;;;5005509;28;20026;-83
2022/07/12 09:58:51;;;;;;;2.30;1.20;;;23.20;99.90;;;;;;5034911;28;20044;-72
2022/07/12 10:01:17;;;;;;;1.55;1.23;;;23.10;99.90;;;;;;5036568;28;20049;-72
2022/07/12 10:03:44;;;;;;;1.17;1.02;;;22.90;99.90;;;;;;5035692;28;20429;-72
2022/07/12 10:06:12;;;;;;;1.48;1.10;;;22.80;99.90;;;;;;5033076;28;20078;-72
2022/07/12 10:08:37;;;;;;;1.90;1.02;;;22.80;99.90;;;;;;5032779;28;20009;-72
2022/07/12 10:11:03;;;;;;;1.90;1.20;;;22.70;99.90;;;;;;5032870;28;20091;-72
2022/07/12 10:13:30;;;;;;;2.47;1.20;;;22.60;99.90;;;;;;5024788;28;20041;-72
2022/07/12 10:16:01;;;;;;;1.95;1.20;;;22.60;99.90;;;;;;5020918;28;20143;-72
2022/07/12 10:18:27;;;;;;;1.70;1.17;;;22.50;99.90;;;;;;5014802;28;20025;-72
2022/07/12 10:20:53;;;;;;;1.85;1.17;;;22.80;99.90;;;;;;5032595;28;20029;-72
2022/07/12 10:23:35;;;;;;;2.30;1.20;;;23.10;99.90;;;;;;5032491;28;20037;-72
2022/07/12 10:26:14;;;;;;;2.25;1.20;;;23.50;99.90;;;;;;5015411;28;20029;-72
2022/07/12 10:28:56;;;;;;;2.67;1.00;;;23.60;99.90;;;;;;5000574;28;20076;-72
2022/07/12 10:31:30;;;;;;;1.65;1.20;;;23.70;99.90;;;;;;5009689;28;20021;-72
2022/07/12 10:34:13;;;;;;;2.40;1.17;;;23.70;99.90;;;;;;5007716;28;20084;-72
2022/07/12 10:36:54;;;;;;;2.90;1.20;;;23.80;99.90;;;;;;5010260;28;20029;-72
2022/07/12 10:39:21;;;;;;;1.63;1.25;;;23.80;99.90;;;;;;5010138;28;20022;-72
2022/07/12 10:42:05;;;;;;;2.22;1.20;;;23.60;99.90;;;;;;5010975;28;20044;-72
2022/07/12 10:44:39;;;;;;;1.02;0.90;;;23.50;99.90;;;;;;5007468;28;20100;-72
2022/07/12 10:47:07;;;;;;;3.38;1.38;;;23.50;99.90;;;;;;5010587;28;20136;-72
2022/07/12 10:49:33;;;;;;;2.08;1.00;;;23.50;99.90;;;;;;5010194;28;20022;-72
2022/07/12 10:52:11;;;;;;;0.82;0.80;;;23.60;99.90;;;;;;5010000;28;20117;-72
2022/07/12 10:54:42;;;;;;;3.53;1.00;;;23.70;99.90;;;;;;5008061;28;20022;-72
2022/07/12 10:57:08;;;;;;;1.80;0.80;;;23.70;99.90;;;;;;5009816;28;20065;-72
2022/07/12 10:59:36;;;;;;;3.42;1.00;;;23.80;99.90;;;;;;5010081;28;20038;-72
2022/07/12 11:02:03;;;;;;;2.35;1.17;;;24.00;99.90;;;;;;5010027;28;20022;-72
2022/07/12 11:04:29;;;;;;;1.13;1.02;;;24.50;99.90;;;;;;5008529;28;20033;-72
2022/07/12 11:06:56;;;;;;;1.10;0.95;;;24.70;99.90;;;;;;5008897;28;20403;-72
2022/07/12 11:09:23;;;;;;;3.90;0.90;;;24.70;99.90;;;;;;5009763;28;20034;-72
2022/07/12 11:11:49;;;;;;;1.65;0.80;;;24.70;99.90;;;;;;5009633;28;20394;-72
2022/07/12 11:14:30;;;;;;;1.80;1.00;;;24.60;99.90;;;;;;4987877;28;20030;-72
2022/07/12 11:16:57;;;;;;;1.38;0.77;;;24.60;99.90;;;;;;5009889;28;20032;-72
2022/07/12 11:19:25;;;;;;;2.10;0.85;;;24.50;99.90;;;;;;5009577;28;20026;-71
2022/07/12 11:21:58;;;;;;;1.15;0.80;;;24.70;99.90;;;;;;5010051;28;20132;-72
2022/07/12 11:24:28;;;;;;;2.25;0.70;;;25.10;99.90;;;;;;5010372;28;20100;-73
2022/07/12 11:26:54;;;;;;;0.65;0.65;;;25.10;99.90;;;;;;5010802;28;20058;-73
2022/07/12 11:29:20;;;;;;;1.10;0.80;;;25.10;99.90;;;;;;5010404;28;20114;-72
2022/07/12 11:31:47;;;;;;;0.82;0.70;;;25.00;99.90;;;;;;5010657;28;20025;-73
2022/07/12 11:34:23;;;;;;;2.00;1.17;;;24.70;99.90;;;;;;5010308;28;20032;-73
2022/07/12 11:36:59;;;;;;;1.33;0.80;;;24.50;99.90;;;;;;5011933;28;20042;-72
2022/07/12 11:39:36;;;;;;;2.08;0.90;;;24.10;99.90;;;;;;5008846;28;20021;-73
2022/07/12 11:42:04;;;;;;;2.10;0.98;;;24.10;99.90;;;;;;5007964;28;20032;-73
2022/07/12 11:44:50;;;;;;;3.20;0.90;;;24.20;99.90;;;;;;5008433;28;20033;-73
2022/07/12 11:47:17;;;;;;;2.60;1.00;;;24.10;99.90;;;;;;5008722;28;20014;-73
2022/07/12 11:49:47;;;;;;;0.70;0.70;;;24.20;99.90;;;;;;5009324;28;20085;-73
2022/07/12 11:52:21;;;;;;;0.90;0.70;;;25.00;99.90;;;;;;5009377;28;20018;-73
2022/07/12 11:54:48;;;;;;;2.92;0.90;;;25.30;99.90;;;;;;5005637;28;20164;-72
2022/07/12 11:57:14;;;;;;;2.28;0.90;;;25.70;99.90;;;;;;5008536;28;20446;-72
2022/07/12 11:59:41;;;;;;;1.08;0.70;;;26.30;99.90;;;;;;5009341;28;20065;-73
2022/07/12 12:02:08;;;;;;;1.20;0.70;;;26.80;99.90;;;;;;5009464;28;20026;-73
2022/07/12 12:04:49;;;;;;;0.75;0.73;;;27.60;99.60;;;;;;5007211;28;20056;-73
2022/07/12 12:07:16;;;;;;;2.35;0.90;;;27.70;99.90;;;;;;5008295;28;20049;-73
2022/07/12 12:10:01;;;;;;;2.15;0.70;;;27.80;99.60;;;;;;5009036;28;20091;-73
2022/07/12 12:12:41;;;;;;;1.23;0.73;;;27.80;98.00;;;;;;5008222;28;20228;-73
2022/07/12 12:15:09;;;;;;;1.65;0.70;;;27.30;97.50;;;;;;5007346;28;20032;-73
2022/07/12 12:17:36;;;;;;;0.70;0.70;;;26.80;97.90;;;;;;5009073;28;20474;-74
2022/07/12 12:20:13;;;;;;;0.80;0.60;;;26.70;98.10;;;;;;4993286;28;20040;-74
2022/07/12 12:22:39;;;;;;;2.95;0.70;;;27.00;97.50;;;;;;5014286;28;20021;-72
2022/07/12 12:25:05;;;;;;;0.90;0.60;;;27.30;97.20;;;;;;5030251;28;20036;-73
2022/07/12 12:27:31;;;;;;;1.90;0.80;;;27.20;96.30;;;;;;5030273;28;20421;-74
2022/07/12 12:30:07;;;;;;;2.20;0.70;;;26.80;97.40;;;;;;5030282;28;20022;-74
2022/07/12 12:32:47;;;;;;;0.95;0.63;;;26.50;98.50;;;;;;5030106;28;20041;-74
2022/07/12 12:35:14;;;;;;;0.60;0.60;;;26.30;97.20;;;;;;5030270;28;20387;-74
2022/07/12 12:37:40;;;;;;;1.40;0.70;;;26.80;97.70;;;;;;5030005;28;20049;-74
2022/07/12 12:40:06;;;;;;;2.88;0.70;;;27.40;96.00;;;;;;5030178;28;20068;-74
2022/07/12 12:42:32;;;;;;;1.45;0.80;;;27.80;96.80;;;;;;5030017;28;20029;-74
2022/07/12 12:44:57;;;;;;;2.30;0.68;;;28.30;94.30;;;;;;5029592;28;20032;-74
2022/07/12 12:47:33;;;;;;;0.82;0.60;;;28.20;96.60;;;;;;5030113;28;20030;-74
2022/07/12 12:50:02;;;;;;;3.03;0.73;;;28.50;94.20;;;;;;5029502;28;20032;-74
2022/07/12 12:52:30;;;;;;;2.10;0.80;;;28.30;94.20;;;;;;5030416;28;20055;-74
2022/07/12 12:54:57;;;;;;;1.50;0.70;;;28.50;94.20;;;;;;5030098;28;20022;-74
2022/07/12 12:57:26;;;;;;;1.70;0.70;;;28.40;93.00;;;;;;5030124;28;20029;-74